Back to Top

Language: 

My Weather Underground Personal Weather Station Historical Data with Graphs...

Delerius Weather Station Historical Data
 
Daily Summary for January 16, 2019 Units:  Metric    English   Both
« Previous Day
Next Day »
Daily Weekly Monthly Yearly Custom
  Current: High: Low: Average:
Temperature: 3.9 °C 9.4 °C 3.7 °C 7.2 °C
Dew Point: 2.4 °C 7.1 °C 1.9 °C 4.9 °C
Humidity: 90 % 91 % 80 % 86 %
Wind Speed: 8 km/h 30.6 km/h 1.6 km/h 16.4 km/h
Wind Gust: 11.3 km/h 48.3 km/h - -
Wind:West - - WSW
Pressure: 999.5 hPa 1006.7 hPa 998.2 hPa -
Precipitation: 0.51 mm      
Historical Graphs
 
 
Tabular Data for January 16, 2019
Time Temperature Dew Point Pressure Wind Wind Speed Wind Gust Humidity Rainfall Rate (Hourly) solar Conditions
00:04 9.1 °C 6 °C 1006.7 hPa WSW 19.3 km/h 30.6 km/h 81 % 0 mm 0.00 W/m2
00:09 9 °C 6.1 °C 1006.7 hPa WSW 17.7 km/h 29 km/h 82 % 0 mm 0.00 W/m2
00:14 8.9 °C 6 °C 1006.7 hPa WSW 17.7 km/h 29 km/h 82 % 0 mm 0.00 W/m2
00:19 8.9 °C 6 °C 1006.7 hPa WSW 17.7 km/h 25.7 km/h 82 % 0 mm 0.00 W/m2
00:24 8.9 °C 6 °C 1006.3 hPa WSW 19.3 km/h 30.6 km/h 82 % 0 mm 0.00 W/m2
00:29 8.9 °C 6 °C 1006.3 hPa WSW 20.9 km/h 35.4 km/h 82 % 0 mm 0.00 W/m2
00:34 8.8 °C 6.1 °C 1006.3 hPa SW 17.7 km/h 33.8 km/h 83 % 0 mm 0.00 W/m2
00:39 8.8 °C 6.1 °C 1006.3 hPa WSW 19.3 km/h 32.2 km/h 83 % 0 mm 0.00 W/m2
00:44 8.8 °C 6.1 °C 1006.3 hPa WSW 19.3 km/h 32.2 km/h 83 % 0 mm 0.00 W/m2
00:49 8.8 °C 6.1 °C 1006 hPa WSW 16.1 km/h 25.7 km/h 83 % 0 mm 0.00 W/m2
00:54 8.9 °C 6.2 °C 1006 hPa WSW 17.7 km/h 29 km/h 83 % 0 mm 0.00 W/m2
00:59 8.9 °C 6.2 °C 1006 hPa WSW 16.1 km/h 22.5 km/h 83 % 0 mm 0.00 W/m2
01:04 8.9 °C 6.3 °C 1006 hPa WSW 19.3 km/h 29 km/h 84 % 0 mm 0.00 W/m2
01:09 9 °C 6.4 °C 1005.6 hPa SW 17.7 km/h 32.2 km/h 84 % 0 mm 0.00 W/m2
01:14 8.9 °C 6.5 °C 1005.6 hPa WSW 22.5 km/h 30.6 km/h 85 % 0 mm 0.00 W/m2
01:19 8.9 °C 6.7 °C 1005.6 hPa WSW 19.3 km/h 33.8 km/h 86 % 0 mm 0.00 W/m2
01:24 8.9 °C 6.7 °C 1005.6 hPa WSW 16.1 km/h 22.5 km/h 86 % 0 mm 0.00 W/m2
01:29 8.9 °C 6.8 °C 1005.3 hPa WSW 19.3 km/h 29 km/h 87 % 0 mm 0.00 W/m2
01:34 8.9 °C 6.8 °C 1005.3 hPa WSW 20.9 km/h 32.2 km/h 87 % 0 mm 0.00 W/m2
01:39 9 °C 6.9 °C 1005 hPa WSW 19.3 km/h 30.6 km/h 87 % 0 mm 0.00 W/m2
01:44 9.1 °C 7.1 °C 1005 hPa WSW 16.1 km/h 29 km/h 87 % 0 mm 0.00 W/m2
01:49 9.1 °C 7.1 °C 1005 hPa WSW 19.3 km/h 29 km/h 87 % 0 mm 0.00 W/m2
01:54 9.1 °C 6.9 °C 1005 hPa WSW 19.3 km/h 32.2 km/h 86 % 0 mm 0.00 W/m2
01:59 9.1 °C 7.1 °C 1004.6 hPa WSW 25.7 km/h 35.4 km/h 87 % 0 mm 0.00 W/m2
02:04 9.1 °C 6.9 °C 1004.6 hPa WSW 19.3 km/h 32.2 km/h 86 % 0 mm 0.00 W/m2
02:09 9.1 °C 6.9 °C 1004.3 hPa WSW 17.7 km/h 24.1 km/h 86 % 0 mm 0.00 W/m2
02:14 9.1 °C 6.9 °C 1004.3 hPa West 17.7 km/h 25.7 km/h 86 % 0 mm 0.00 W/m2
02:19 9.1 °C 6.9 °C 1004.3 hPa WSW 19.3 km/h 35.4 km/h 86 % 0 mm 0.00 W/m2
02:25 9.1 °C 6.9 °C 1004.3 hPa WSW 17.7 km/h 33.8 km/h 86 % 0 mm 0.00 W/m2
02:29 9.2 °C 7 °C 1004.3 hPa WSW 19.3 km/h 30.6 km/h 86 % 0 mm 0.00 W/m2
02:34 9.2 °C 6.8 °C 1004.3 hPa SW 19.3 km/h 32.2 km/h 85 % 0 mm 0.00 W/m2
02:39 9.2 °C 6.8 °C 1003.9 hPa WSW 19.3 km/h 30.6 km/h 85 % 0 mm 0.00 W/m2
02:44 9.3 °C 6.9 °C 1003.9 hPa WSW 20.9 km/h 32.2 km/h 85 % 0 mm 0.00 W/m2
02:49 9.3 °C 6.9 °C 1003.9 hPa WSW 30.6 km/h 45.1 km/h 85 % 0 mm 0.00 W/m2
02:54 9.4 °C 6.8 °C 1003.6 hPa WSW 29 km/h 40.2 km/h 84 % 0 mm 0.00 W/m2
02:59 9.4 °C 6.8 °C 1003.6 hPa WSW 25.7 km/h 37 km/h 84 % 0 mm 0.00 W/m2
03:04 9.4 °C 6.8 °C 1003.6 hPa WSW 27.4 km/h 43.5 km/h 84 % 0 mm 0.00 W/m2
03:09 9.4 °C 6.7 °C 1003.6 hPa WSW 25.7 km/h 35.4 km/h 83 % 0 mm 0.00 W/m2
03:14 9.4 °C 6.7 °C 1003.6 hPa WSW 22.5 km/h 41.8 km/h 83 % 0 mm 0.00 W/m2
03:19 9.4 °C 6.7 °C 1003.3 hPa WSW 25.7 km/h 38.6 km/h 83 % 0 mm 0.00 W/m2
03:24 9.4 °C 6.7 °C 1003.6 hPa WSW 25.7 km/h 37 km/h 83 % 0 mm 0.00 W/m2
03:29 9.3 °C 6.4 °C 1003.3 hPa WSW 25.7 km/h 48.3 km/h 82 % 0 mm 0.00 W/m2
03:35 9.3 °C 6.4 °C 1003.3 hPa WSW 19.3 km/h 30.6 km/h 82 % 0 mm 0.00 W/m2
03:39 9.3 °C 6.4 °C 1003.3 hPa WSW 22.5 km/h 37 km/h 82 % 0 mm 0.00 W/m2
03:44 9.3 °C 6.4 °C 1002.9 hPa WSW 24.1 km/h 37 km/h 82 % 0 mm 0.00 W/m2
03:49 9.4 °C 6.3 °C 1002.6 hPa SW 20.9 km/h 32.2 km/h 81 % 0 mm 0.00 W/m2
03:54 9.4 °C 6.3 °C 1002.6 hPa SW 16.1 km/h 24.1 km/h 81 % 0 mm 0.00 W/m2
03:59 9.4 °C 6.3 °C 1002.6 hPa SW 17.7 km/h 30.6 km/h 81 % 0 mm 0.00 W/m2
04:04 9.4 °C 6.3 °C 1002.6 hPa SW 20.9 km/h 29 km/h 81 % 0 mm 0.00 W/m2
04:09 9.4 °C 6.3 °C 1002.3 hPa SW 17.7 km/h 30.6 km/h 81 % 0 mm 0.00 W/m2
04:14 9.4 °C 6.1 °C 1002.3 hPa SW 19.3 km/h 32.2 km/h 80 % 0 mm 0.00 W/m2
04:19 9.4 °C 6.3 °C 1002.3 hPa WSW 14.5 km/h 22.5 km/h 81 % 0 mm 0.00 W/m2
04:24 9.4 °C 6.3 °C 1002.3 hPa WSW 12.9 km/h 22.5 km/h 81 % 0 mm 0.00 W/m2
04:29 9.3 °C 6.2 °C 1002.3 hPa WSW 16.1 km/h 24.1 km/h 81 % 0 mm 0.00 W/m2
04:34 9.3 °C 6.2 °C 1001.9 hPa SW 20.9 km/h 30.6 km/h 81 % 0 mm 0.00 W/m2
04:39 9.2 °C 6.1 °C 1001.9 hPa SW 20.9 km/h 33.8 km/h 81 % 0 mm 0.00 W/m2
04:44 9.2 °C 6.1 °C 1001.9 hPa WSW 19.3 km/h 30.6 km/h 81 % 0 mm 0.00 W/m2
04:49 9.2 °C 6.1 °C 1001.6 hPa WSW 17.7 km/h 29 km/h 81 % 0 mm 0.00 W/m2
04:54 9.1 °C 6 °C 1001.6 hPa WSW 19.3 km/h 33.8 km/h 81 % 0 mm 0.00 W/m2
04:59 9.2 °C 6.1 °C 1001.6 hPa SW 22.5 km/h 35.4 km/h 81 % 0 mm 0.00 W/m2
05:04 9.2 °C 6.1 °C 1001.6 hPa SW 17.7 km/h 29 km/h 81 % 0 mm 0.00 W/m2
05:09 9.2 °C 6.1 °C 1001.6 hPa SW 22.5 km/h 37 km/h 81 % 0 mm 0.00 W/m2
05:14 9.1 °C 6 °C 1001.2 hPa SW 24.1 km/h 33.8 km/h 81 % 0 mm 0.00 W/m2
05:20 9.1 °C 6 °C 1001.2 hPa WSW 22.5 km/h 35.4 km/h 81 % 0 mm 0.00 W/m2
05:24 9.1 °C 6.2 °C 1001.2 hPa SW 27.4 km/h 43.5 km/h 82 % 0 mm 0.00 W/m2
05:29 9.2 °C 6.3 °C 1000.9 hPa SW 29 km/h 41.8 km/h 82 % 0 mm 0.00 W/m2
05:34 9.2 °C 6.3 °C 1000.9 hPa SW 24.1 km/h 37 km/h 82 % 0 mm 0.00 W/m2
05:39 9.1 °C 6.2 °C 1000.9 hPa SW 24.1 km/h 37 km/h 82 % 0 mm 0.00 W/m2
05:44 9.1 °C 6.2 °C 1000.9 hPa WSW 25.7 km/h 35.4 km/h 82 % 0 mm 0.00 W/m2
05:49 9 °C 6.3 °C 1000.9 hPa WSW 25.7 km/h 38.6 km/h 83 % 0 mm 0.00 W/m2
05:54 8.9 °C 6 °C 1000.6 hPa WSW 20.9 km/h 32.2 km/h 82 % 0 mm 0.00 W/m2
05:59 8.9 °C 6.2 °C 1000.6 hPa SW 24.1 km/h 35.4 km/h 83 % 0 mm 0.00 W/m2
06:04 8.9 °C 6.2 °C 1000.6 hPa SW 19.3 km/h 32.2 km/h 83 % 0 mm 0.00 W/m2
06:09 8.8 °C 6.1 °C 1000.6 hPa SW 22.5 km/h 38.6 km/h 83 % 0 mm 0.00 W/m2
06:14 8.8 °C 6.1 °C 1000.6 hPa SW 19.3 km/h 32.2 km/h 83 % 0 mm 0.00 W/m2
06:19 8.8 °C 6.1 °C 1000.2 hPa SW 22.5 km/h 33.8 km/h 83 % 0 mm 0.00 W/m2
06:24 8.8 °C 6.1 °C 1000.2 hPa SW 22.5 km/h 37 km/h 83 % 0 mm 0.00 W/m2
06:29 8.8 °C 6.1 °C 1000.2 hPa SW 20.9 km/h 32.2 km/h 83 % 0 mm 0.00 W/m2
06:34 8.8 °C 6.1 °C 1000.2 hPa SW 20.9 km/h 25.7 km/h 83 % 0 mm 0.00 W/m2
06:39 8.7 °C 6 °C 1000.2 hPa SW 22.5 km/h 33.8 km/h 83 % 0 mm 0.00 W/m2
06:44 8.7 °C 6 °C 1000.2 hPa SW 19.3 km/h 29 km/h 83 % 0 mm 0.00 W/m2
06:49 8.7 °C 6 °C 1000.2 hPa SW 22.5 km/h 32.2 km/h 83 % 0 mm 0.00 W/m2
06:54 8.8 °C 6.1 °C 1000.2 hPa SW 20.9 km/h 35.4 km/h 83 % 0 mm 0.00 W/m2
06:59 8.8 °C 6.1 °C 1000.2 hPa SW 20.9 km/h 30.6 km/h 83 % 0 mm 0.00 W/m2
07:04 8.8 °C 5.9 °C 999.9 hPa SW 20.9 km/h 33.8 km/h 82 % 0 mm 0.00 W/m2
07:09 8.9 °C 6 °C 999.9 hPa SW 24.1 km/h 32.2 km/h 82 % 0 mm 0.00 W/m2
07:14 9 °C 6.1 °C 999.9 hPa SW 22.5 km/h 35.4 km/h 82 % 0 mm 0.00 W/m2
07:19 9.1 °C 6.2 °C 999.9 hPa WSW 20.9 km/h 35.4 km/h 82 % 0 mm 0.00 W/m2
07:24 9.1 °C 6.2 °C 1000.2 hPa SW 19.3 km/h 30.6 km/h 82 % 0 mm 0.00 W/m2
07:29 9.1 °C 6.2 °C 999.9 hPa WSW 19.3 km/h 30.6 km/h 82 % 0 mm 0.00 W/m2
07:34 9.1 °C 6.2 °C 999.9 hPa WSW 20.9 km/h 37 km/h 82 % 0 mm 0.00 W/m2
07:39 9.1 °C 6.4 °C 999.9 hPa SW 20.9 km/h 38.6 km/h 83 % 0 mm 0.00 W/m2
07:44 9 °C 6.3 °C 999.9 hPa SW 16.1 km/h 22.5 km/h 83 % 0 mm 0.00 W/m2
07:49 8.9 °C 6.2 °C 999.9 hPa SW 19.3 km/h 30.6 km/h 83 % 0 mm 0.00 W/m2
07:55 8.9 °C 6.3 °C 999.9 hPa SW 22.5 km/h 32.2 km/h 84 % 0 mm 0.00 W/m2
07:59 8.8 °C 6.2 °C 999.9 hPa SW 22.5 km/h 35.4 km/h 84 % 0 mm 0.00 W/m2
08:04 8.9 °C 6.3 °C 999.9 hPa SW 17.7 km/h 25.7 km/h 84 % 0 mm 0.00 W/m2
08:09 8.8 °C 6.2 °C 999.9 hPa SW 14.5 km/h 22.5 km/h 84 % 0 mm 0.00 W/m2
08:14 8.9 °C 6.3 °C 999.9 hPa SW 16.1 km/h 25.7 km/h 84 % 0 mm 0.00 W/m2
08:19 8.9 °C 6.3 °C 999.9 hPa SW 19.3 km/h 30.6 km/h 84 % 0 mm 0.00 W/m2
08:24 8.9 °C 6.3 °C 999.9 hPa WSW 16.1 km/h 24.1 km/h 84 % 0 mm 0.00 W/m2
08:29 8.9 °C 6.3 °C 999.9 hPa SW 17.7 km/h 25.7 km/h 84 % 0 mm 0.00 W/m2
08:34 9 °C 6.4 °C 999.9 hPa SW 19.3 km/h 30.6 km/h 84 % 0 mm 7.00 W/m2
08:39 8.9 °C 6.3 °C 999.5 hPa WSW 14.5 km/h 20.9 km/h 84 % 0 mm 11.00 W/m2
08:44 8.9 °C 6.3 °C 999.5 hPa SW 16.1 km/h 24.1 km/h 84 % 0 mm 11.00 W/m2
08:49 8.9 °C 6.5 °C 999.5 hPa SW 16.1 km/h 22.5 km/h 85 % 0 mm 9.00 W/m2
08:54 8.9 °C 6.5 °C 999.5 hPa SW 17.7 km/h 24.1 km/h 85 % 0 mm 12.00 W/m2
08:59 8.9 °C 6.5 °C 999.5 hPa SW 16.1 km/h 25.7 km/h 85 % 0 mm 18.00 W/m2
09:04 8.9 °C 6.5 °C 999.5 hPa SW 16.1 km/h 25.7 km/h 85 % 0 mm 25.00 W/m2
09:09 9 °C 6.6 °C 999.5 hPa SW 19.3 km/h 29 km/h 85 % 0 mm 21.00 W/m2
09:14 9 °C 6.6 °C 999.5 hPa SW 16.1 km/h 22.5 km/h 85 % 0 mm 16.00 W/m2
09:19 9 °C 6.6 °C 999.5 hPa WSW 16.1 km/h 25.7 km/h 85 % 0 mm 19.00 W/m2
09:24 8.9 °C 6.7 °C 999.5 hPa WSW 12.9 km/h 19.3 km/h 86 % 0 mm 18.00 W/m2
09:29 8.9 °C 6.7 °C 999.9 hPa West 20.9 km/h 35.4 km/h 86 % 0 mm 12.00 W/m2
09:34 8.3 °C 6.1 °C 1000.2 hPa WNW 19.3 km/h 37 km/h 86 % 0.25 mm 58.00 W/m2
09:39 7.9 °C 5.9 °C 1000.2 hPa WNW 16.1 km/h 25.7 km/h 87 % 0.25 mm 49.00 W/m2
09:44 7.6 °C 5.7 °C 1000.2 hPa WNW 14.5 km/h 24.1 km/h 88 % 0.25 mm 39.00 W/m2
09:49 7.3 °C 5.6 °C 1000.2 hPa WNW 19.3 km/h 29 km/h 89 % 0.25 mm 44.00 W/m2
09:54 7.2 °C 5.7 °C 1000.2 hPa WNW 19.3 km/h 29 km/h 90 % 0.25 mm 51.00 W/m2
09:59 7.1 °C 5.7 °C 1000.2 hPa WNW 14.5 km/h 22.5 km/h 91 % 0.25 mm 63.00 W/m2
10:04 7.1 °C 5.7 °C 1000.2 hPa WNW 14.5 km/h 20.9 km/h 91 % 0.25 mm 42.00 W/m2
10:09 6.9 °C 5.6 °C 1000.2 hPa WNW 17.7 km/h 29 km/h 91 % 0.25 mm 42.00 W/m2
10:14 6.8 °C 5.4 °C 1000.2 hPa WNW 12.9 km/h 17.7 km/h 91 % 0.25 mm 56.00 W/m2
10:19 6.8 °C 5.4 °C 1000.2 hPa WNW 12.9 km/h 22.5 km/h 91 % 0.25 mm 81.00 W/m2
10:24 6.8 °C 5.4 °C 1000.2 hPa West 11.3 km/h 20.9 km/h 91 % 0.25 mm 83.00 W/m2
10:29 6.8 °C 5.4 °C 1000.2 hPa WNW 11.3 km/h 14.5 km/h 91 % 0.25 mm 53.00 W/m2
10:34 6.8 °C 5.4 °C 1000.2 hPa WNW 12.9 km/h 19.3 km/h 91 % 0 mm 40.00 W/m2
10:39 6.8 °C 5.4 °C 1000.2 hPa West 9.7 km/h 16.1 km/h 91 % 0.25 mm 37.00 W/m2
10:44 6.7 °C 5.3 °C 1000.2 hPa West 14.5 km/h 19.3 km/h 91 % 0.25 mm 37.00 W/m2
10:49 6.7 °C 5.3 °C 1000.2 hPa West 11.3 km/h 14.5 km/h 91 % 0.25 mm 44.00 W/m2
10:54 6.7 °C 5.3 °C 1000.2 hPa West 9.7 km/h 14.5 km/h 91 % 0.25 mm 42.00 W/m2
10:59 6.7 °C 5.3 °C 1000.2 hPa WSW 11.3 km/h 14.5 km/h 91 % 0.25 mm 65.00 W/m2
11:04 6.7 °C 5.3 °C 1000.2 hPa West 9.7 km/h 16.1 km/h 91 % 0.25 mm 63.00 W/m2
11:09 6.7 °C 5.3 °C 1000.2 hPa West 11.3 km/h 16.1 km/h 91 % 0.25 mm 47.00 W/m2
11:14 6.7 °C 5.3 °C 1000.2 hPa West 8 km/h 14.5 km/h 91 % 0.25 mm 30.00 W/m2
11:19 6.7 °C 5.3 °C 1000.2 hPa West 6.4 km/h 11.3 km/h 91 % 0.25 mm 42.00 W/m2
11:24 6.7 °C 5.3 °C 1000.2 hPa West 12.9 km/h 20.9 km/h 91 % 0.25 mm 42.00 W/m2
11:29 6.6 °C 5.2 °C 1000.2 hPa West 14.5 km/h 22.5 km/h 91 % 0.25 mm 53.00 W/m2
11:34 6.6 °C 5.2 °C 1000.2 hPa WNW 17.7 km/h 24.1 km/h 91 % 0.25 mm 63.00 W/m2
11:39 6.5 °C 5 °C 1000.2 hPa WNW 14.5 km/h 20.9 km/h 90 % 0 mm 60.00 W/m2
11:44 6.5 °C 5 °C 1000.2 hPa WNW 16.1 km/h 24.1 km/h 90 % 0 mm 51.00 W/m2
11:49 6.4 °C 4.9 °C 999.9 hPa WNW 12.9 km/h 20.9 km/h 90 % 0 mm 53.00 W/m2
11:54 6.4 °C 4.9 °C 999.9 hPa WNW 14.5 km/h 20.9 km/h 90 % 0 mm 67.00 W/m2
11:59 6.4 °C 4.9 °C 999.9 hPa WNW 14.5 km/h 22.5 km/h 90 % 0 mm 60.00 W/m2
12:04 6.4 °C 4.9 °C 999.9 hPa WNW 17.7 km/h 29 km/h 90 % 0 mm 72.00 W/m2
12:09 6.4 °C 4.7 °C 999.9 hPa WNW 22.5 km/h 33.8 km/h 89 % 0 mm 70.00 W/m2
12:14 6.3 °C 4.6 °C 1000.2 hPa WNW 20.9 km/h 30.6 km/h 89 % 0 mm 65.00 W/m2
12:19 6.2 °C 4.3 °C 1000.2 hPa WNW 17.7 km/h 33.8 km/h 88 % 0.25 mm 54.00 W/m2
12:24 6.1 °C 4.4 °C 1000.2 hPa WNW 16.1 km/h 22.5 km/h 89 % 0.25 mm 54.00 W/m2
12:29 6.1 °C 4.4 °C 1000.2 hPa WNW 16.1 km/h 25.7 km/h 89 % 0.25 mm 46.00 W/m2
12:34 5.9 °C 4.1 °C 1000.2 hPa WNW 16.1 km/h 24.1 km/h 88 % 0.25 mm 46.00 W/m2
12:39 5.8 °C 3.9 °C 1000.2 hPa WNW 25.7 km/h 40.2 km/h 88 % 0.25 mm 51.00 W/m2
12:44 5.7 °C 3.9 °C 1000.2 hPa WNW 16.1 km/h 32.2 km/h 88 % 0.25 mm 53.00 W/m2
12:49 5.7 °C 3.9 °C 1000.2 hPa WNW 14.5 km/h 20.9 km/h 88 % 0.25 mm 49.00 W/m2
12:54 5.6 °C 3.8 °C 1000.2 hPa WNW 16.1 km/h 22.5 km/h 88 % 0.25 mm 49.00 W/m2
12:59 5.6 °C 3.8 °C 999.9 hPa West 11.3 km/h 19.3 km/h 88 % 0.25 mm 47.00 W/m2
13:04 5.5 °C 3.7 °C 999.9 hPa West 14.5 km/h 22.5 km/h 88 % 0.25 mm 47.00 W/m2
13:09 5.4 °C 3.6 °C 999.9 hPa West 12.9 km/h 19.3 km/h 88 % 0.25 mm 49.00 W/m2
13:14 5.4 °C 3.6 °C 999.5 hPa WSW 14.5 km/h 20.9 km/h 88 % 0.25 mm 51.00 W/m2
13:19 5.4 °C 3.6 °C 999.5 hPa West 12.9 km/h 19.3 km/h 88 % 0 mm 51.00 W/m2
13:24 5.4 °C 3.6 °C 999.5 hPa West 12.9 km/h 17.7 km/h 88 % 0 mm 53.00 W/m2
13:29 5.4 °C 3.6 °C 999.5 hPa West 12.9 km/h 19.3 km/h 88 % 0 mm 49.00 W/m2
13:34 5.4 °C 3.6 °C 999.2 hPa West 9.7 km/h 16.1 km/h 88 % 0 mm 46.00 W/m2
13:39 5.3 °C 3.5 °C 999.2 hPa West 14.5 km/h 22.5 km/h 88 % 0 mm 47.00 W/m2
13:44 5.3 °C 3.5 °C 999.2 hPa West 12.9 km/h 20.9 km/h 88 % 0 mm 40.00 W/m2
13:49 5.3 °C 3.5 °C 999.2 hPa West 16.1 km/h 24.1 km/h 88 % 0 mm 44.00 W/m2
13:54 5.3 °C 3.5 °C 999.2 hPa West 19.3 km/h 32.2 km/h 88 % 0 mm 46.00 W/m2
13:59 5.3 °C 3.5 °C 999.2 hPa West 16.1 km/h 25.7 km/h 88 % 0 mm 40.00 W/m2
14:04 5.3 °C 3.5 °C 998.9 hPa West 14.5 km/h 20.9 km/h 88 % 0 mm 40.00 W/m2
14:09 5.3 °C 3.5 °C 998.9 hPa West 12.9 km/h 16.1 km/h 88 % 0 mm 42.00 W/m2
14:14 5.3 °C 3.5 °C 998.9 hPa West 9.7 km/h 16.1 km/h 88 % 0 mm 49.00 W/m2
14:19 5.4 °C 3.6 °C 998.9 hPa WSW 8 km/h 11.3 km/h 88 % 0 mm 56.00 W/m2
14:24 5.4 °C 3.7 °C 998.9 hPa West 11.3 km/h 17.7 km/h 89 % 0 mm 54.00 W/m2
14:29 5.5 °C 3.8 °C 998.9 hPa West 8 km/h 12.9 km/h 89 % 0 mm 47.00 W/m2
14:34 5.6 °C 3.9 °C 998.9 hPa West 12.9 km/h 17.7 km/h 89 % 0 mm 51.00 W/m2
14:39 5.6 °C 3.9 °C 998.9 hPa West 12.9 km/h 17.7 km/h 89 % 0 mm 54.00 W/m2
14:44 5.7 °C 3.9 °C 998.9 hPa West 17.7 km/h 30.6 km/h 88 % 0 mm 58.00 W/m2
14:49 5.8 °C 3.9 °C 998.9 hPa West 16.1 km/h 24.1 km/h 88 % 0 mm 46.00 W/m2
14:54 5.8 °C 3.8 °C 998.9 hPa West 16.1 km/h 24.1 km/h 87 % 0 mm 63.00 W/m2
14:59 5.9 °C 3.9 °C 998.9 hPa West 16.1 km/h 24.1 km/h 87 % 0 mm 158.00 W/m2
15:04 6.1 °C 3.9 °C 998.9 hPa West 19.3 km/h 29 km/h 86 % 0 mm 132.00 W/m2
15:09 6.1 °C 3.9 °C 998.5 hPa West 16.1 km/h 30.6 km/h 86 % 0 mm 113.00 W/m2
15:14 6.2 °C 3.9 °C 998.9 hPa West 17.7 km/h 25.7 km/h 85 % 0 mm 84.00 W/m2
15:19 6.2 °C 3.9 °C 998.9 hPa West 16.1 km/h 22.5 km/h 85 % 0 mm 54.00 W/m2
15:24 6.2 °C 3.7 °C 998.9 hPa West 16.1 km/h 25.7 km/h 84 % 0 mm 44.00 W/m2
15:29 6.1 °C 3.6 °C 998.9 hPa West 17.7 km/h 24.1 km/h 84 % 0 mm 40.00 W/m2
15:35 6.1 °C 3.6 °C 998.9 hPa West 11.3 km/h 24.1 km/h 84 % 0 mm 30.00 W/m2
15:40 6 °C 3.5 °C 998.9 hPa WSW 16.1 km/h 22.5 km/h 84 % 0 mm 19.00 W/m2
15:44 5.9 °C 3.4 °C 998.9 hPa West 12.9 km/h 17.7 km/h 84 % 0 mm 18.00 W/m2
15:49 5.8 °C 3.3 °C 998.9 hPa West 14.5 km/h 19.3 km/h 84 % 0 mm 16.00 W/m2
15:54 5.8 °C 3.3 °C 998.9 hPa West 14.5 km/h 20.9 km/h 84 % 0 mm 12.00 W/m2
15:59 5.7 °C 3.2 °C 998.9 hPa West 14.5 km/h 24.1 km/h 84 % 0 mm 11.00 W/m2
16:04 5.6 °C 3.1 °C 998.9 hPa West 12.9 km/h 20.9 km/h 84 % 0 mm 11.00 W/m2
16:09 5.6 °C 3.3 °C 998.9 hPa West 14.5 km/h 24.1 km/h 85 % 0 mm 7.00 W/m2
16:14 5.5 °C 3.2 °C 998.9 hPa West 12.9 km/h 19.3 km/h 85 % 0 mm 7.00 W/m2
16:19 5.5 °C 3.2 °C 998.9 hPa West 14.5 km/h 22.5 km/h 85 % 0 mm 5.00 W/m2
16:24 5.5 °C 3.2 °C 998.9 hPa WNW 11.3 km/h 20.9 km/h 85 % 0 mm 0.00 W/m2
16:29 5.5 °C 3 °C 998.9 hPa NW 12.9 km/h 17.7 km/h 84 % 0 mm 0.00 W/m2
16:34 5.3 °C 2.8 °C 998.9 hPa West 12.9 km/h 17.7 km/h 84 % 0 mm 0.00 W/m2
16:39 5.2 °C 2.7 °C 998.9 hPa WNW 9.7 km/h 14.5 km/h 84 % 0 mm 0.00 W/m2
16:45 5.1 °C 2.8 °C 998.9 hPa West 8 km/h 16.1 km/h 85 % 0 mm 0.00 W/m2
16:50 5 °C 2.7 °C 998.9 hPa West 4.8 km/h 9.7 km/h 85 % 0 mm 0.00 W/m2
16:54 4.9 °C 2.6 °C 998.9 hPa West 11.3 km/h 19.3 km/h 85 % 0 mm 0.00 W/m2
16:59 4.9 °C 2.6 °C 998.9 hPa West 12.9 km/h 17.7 km/h 85 % 0 mm 0.00 W/m2
17:04 5 °C 2.7 °C 998.5 hPa WSW 11.3 km/h 16.1 km/h 85 % 0 mm 0.00 W/m2
17:09 5 °C 2.7 °C 998.5 hPa WSW 14.5 km/h 20.9 km/h 85 % 0 mm 0.00 W/m2
17:14 5.1 °C 2.8 °C 998.5 hPa West 12.9 km/h 19.3 km/h 85 % 0 mm 0.00 W/m2
17:19 5 °C 2.7 °C 998.2 hPa WSW 12.9 km/h 19.3 km/h 85 % 0 mm 0.00 W/m2
17:24 5 °C 2.7 °C 998.2 hPa WSW 17.7 km/h 24.1 km/h 85 % 0 mm 0.00 W/m2
17:29 5.1 °C 2.9 °C 998.2 hPa WSW 19.3 km/h 29 km/h 86 % 0 mm 0.00 W/m2
17:34 5.1 °C 2.9 °C 998.2 hPa WSW 16.1 km/h 24.1 km/h 86 % 0 mm 0.00 W/m2
17:40 5.1 °C 2.9 °C 998.2 hPa West 16.1 km/h 24.1 km/h 86 % 0 mm 0.00 W/m2
17:44 5.1 °C 2.9 °C 998.2 hPa WSW 20.9 km/h 30.6 km/h 86 % 0 mm 0.00 W/m2
17:49 5.1 °C 2.9 °C 998.5 hPa WSW 19.3 km/h 33.8 km/h 86 % 0 mm 0.00 W/m2
17:54 5.1 °C 2.8 °C 998.5 hPa West 19.3 km/h 30.6 km/h 85 % 0 mm 0.00 W/m2
17:59 4.9 °C 2.6 °C 998.5 hPa West 16.1 km/h 22.5 km/h 85 % 0 mm 0.00 W/m2
18:04 4.8 °C 2.5 °C 998.9 hPa West 12.9 km/h 19.3 km/h 85 % 0 mm 0.00 W/m2
18:09 4.7 °C 2.4 °C 998.9 hPa West 14.5 km/h 24.1 km/h 85 % 0 mm 0.00 W/m2
18:14 4.6 °C 2.4 °C 998.9 hPa West 19.3 km/h 32.2 km/h 86 % 0 mm 0.00 W/m2
18:19 4.5 °C 2.3 °C 998.5 hPa West 14.5 km/h 29 km/h 86 % 0 mm 0.00 W/m2
18:24 4.4 °C 2.3 °C 998.9 hPa WNW 16.1 km/h 20.9 km/h 86 % 0 mm 0.00 W/m2
18:29 4.2 °C 2.1 °C 998.9 hPa West 9.7 km/h 14.5 km/h 86 % 0 mm 0.00 W/m2
18:34 4.1 °C 2.1 °C 998.9 hPa West 9.7 km/h 16.1 km/h 87 % 0 mm 0.00 W/m2
18:39 4.1 °C 2.1 °C 998.9 hPa WSW 6.4 km/h 12.9 km/h 87 % 0 mm 0.00 W/m2
18:44 4 °C 2.2 °C 998.9 hPa WSW 3.2 km/h 9.7 km/h 88 % 0 mm 0.00 W/m2
18:49 4 °C 2.2 °C 998.9 hPa WSW 11.3 km/h 17.7 km/h 88 % 0 mm 0.00 W/m2
18:54 4 °C 2.2 °C 998.9 hPa West 3.2 km/h 8 km/h 88 % 0 mm 0.00 W/m2
18:59 3.9 °C 2.1 °C 999.2 hPa West 4.8 km/h 9.7 km/h 88 % 0 mm 0.00 W/m2
19:04 3.9 °C 2.1 °C 999.2 hPa WNW 1.6 km/h 3.2 km/h 88 % 0 mm 0.00 W/m2
19:09 3.8 °C 2 °C 999.2 hPa WNW 4.8 km/h 9.7 km/h 88 % 0 mm 0.00 W/m2
19:14 3.7 °C 1.9 °C 999.2 hPa WNW 4.8 km/h 12.9 km/h 88 % 0 mm 0.00 W/m2
19:19 3.7 °C 2.1 °C 999.2 hPa WNW 3.2 km/h 8 km/h 89 % 0 mm 0.00 W/m2
19:24 3.7 °C 2.1 °C 999.2 hPa WNW 9.7 km/h 12.9 km/h 89 % 0 mm 0.00 W/m2
19:29 3.7 °C 2.1 °C 999.2 hPa WNW 11.3 km/h 16.1 km/h 89 % 0 mm 0.00 W/m2
19:34 3.7 °C 2.1 °C 999.2 hPa West 8 km/h 11.3 km/h 89 % 0 mm 0.00 W/m2
19:39 3.8 °C 2.2 °C 999.2 hPa West 8 km/h 14.5 km/h 89 % 0 mm 0.00 W/m2
19:44 3.8 °C 2.2 °C 999.2 hPa West 8 km/h 14.5 km/h 89 % 0 mm 0.00 W/m2
19:49 3.8 °C 2.2 °C 999.5 hPa WNW 4.8 km/h 9.7 km/h 89 % 0 mm 0.00 W/m2
19:54 3.8 °C 2.3 °C 999.5 hPa WNW 9.7 km/h 16.1 km/h 90 % 0 mm 0.00 W/m2
19:59 3.9 °C 2.4 °C 999.5 hPa West 8 km/h 14.5 km/h 90 % 0 mm 0.00 W/m2
20:04 4 °C 2.5 °C 999.5 hPa West 4.8 km/h 9.7 km/h 90 % 0 mm 0.00 W/m2
20:09 4 °C 2.5 °C 999.5 hPa West 6.4 km/h 9.7 km/h 90 % 0 mm 0.00 W/m2
20:14 3.9 °C 2.4 °C 999.5 hPa West 8 km/h 11.3 km/h 90 % 0 mm 0.00 W/m2
Delerius-Weather
Compliments of Weather Underground - 2 mb

Data updates at regular intervals.